TimePST,TemperatureF,Dew PointF,Humidity,Sea Level PressureIn,VisibilityMPH,Wind Direction,Wind SpeedMPH,Gust SpeedMPH,PrecipitationIn,Events,Conditions,WindDirDegrees,DateUTC
12:54 AM,39.0,35.1,86,30.20,10.0,North,3.5,-,N/A,,Clear,360,2013-01-05 08:54:00
1:54 AM,37.0,33.1,86,30.22,10.0,North,6.9,-,N/A,,Clear,360,2013-01-05 09:54:00
2:54 AM,34.0,32.0,92,30.21,10.0,Calm,Calm,-,N/A,,Clear,0,2013-01-05 10:54:00
3:54 AM,35.1,32.0,89,30.23,10.0,Calm,Calm,-,N/A,,Clear,0,2013-01-05 11:54:00
4:54 AM,34.0,30.9,89,30.22,10.0,NNW,3.5,-,N/A,,Clear,340,2013-01-05 12:54:00
5:54 AM,35.1,32.0,89,30.23,10.0,NNE,5.8,-,N/A,,Overcast,30,2013-01-05 13:54:00
6:54 AM,37.9,35.1,89,30.23,10.0,NNW,6.9,-,N/A,,Overcast,340,2013-01-05 14:54:00
7:02 AM,39.2,35.6,87,30.26,10.0,North,6.9,-,N/A,,Overcast,360,2013-01-05 15:02:00
7:54 AM,41.0,35.1,79,30.24,10.0,Calm,Calm,-,N/A,,Overcast,0,2013-01-05 15:54:00
8:54 AM,43.0,36.0,76,30.25,10.0,Calm,Calm,-,N/A,,Overcast,0,2013-01-05 16:54:00
9:47 AM,48.2,37.4,66,30.26,10.0,East,6.9,-,N/A,,Overcast,80,2013-01-05 17:47:00
9:54 AM,48.9,37.9,66,30.23,10.0,East,9.2,-,N/A,,Overcast,90,2013-01-05 17:54:00
10:54 AM,46.9,36.0,66,30.21,10.0,East,13.8,-,N/A,,Overcast,80,2013-01-05 18:54:00
11:54 AM,48.0,37.9,68,30.19,6.0,East,11.5,-,N/A,,Haze,100,2013-01-05 19:54:00
12:54 PM,48.9,39.9,71,30.16,4.0,East,9.2,-,N/A,,Haze,90,2013-01-05 20:54:00
1:23 PM,48.2,39.2,71,30.16,4.0,East,10.4,-,N/A,,Haze,100,2013-01-05 21:23:00
1:54 PM,48.9,39.9,71,30.12,6.0,East,10.4,-,N/A,,Haze,100,2013-01-05 21:54:00
2:06 PM,48.2,39.2,71,30.16,6.0,East,8.1,-,N/A,,Haze,90,2013-01-05 22:06:00
2:28 PM,48.2,39.2,71,30.15,6.0,East,8.1,-,N/A,,Haze,90,2013-01-05 22:28:00
2:54 PM,48.9,39.9,71,30.12,5.0,East,6.9,-,N/A,,Haze,90,2013-01-05 22:54:00
3:52 PM,46.4,41.0,81,30.13,2.0,East,10.4,-,0.01,Rain,Rain,90,2013-01-05 23:52:00
3:54 PM,46.9,41.0,80,30.10,2.0,East,10.4,-,0.01,Rain,Rain,90,2013-01-05 23:54:00
4:25 PM,46.4,42.8,87,30.13,2.5,ENE,5.8,-,0.03,Rain,Light Rain,70,2013-01-06 00:25:00
4:54 PM,46.0,43.0,89,30.10,3.0,ENE,5.8,-,0.07,Rain,Light Rain,60,2013-01-06 00:54:00
5:54 PM,46.0,43.0,89,30.09,3.0,East,12.7,-,0.00,Rain,Light Rain,80,2013-01-06 01:54:00
6:14 PM,46.4,42.8,87,30.11,2.5,East,12.7,-,0.00,Rain,Light Rain,90,2013-01-06 02:14:00
6:34 PM,46.4,42.8,87,30.10,3.0,East,13.8,-,0.00,Rain,Light Rain,90,2013-01-06 02:34:00
6:54 PM,46.0,43.0,89,30.07,3.0,East,11.5,19.6,0.00,Rain,Light Rain,80,2013-01-06 02:54:00
7:54 PM,46.9,43.0,86,30.06,4.0,East,11.5,23.0,0.02,,Overcast,80,2013-01-06 03:54:00
8:54 PM,46.9,43.0,86,30.07,4.0,East,12.7,18.4,0.05,Rain,Light Rain,80,2013-01-06 04:54:00
9:54 PM,46.0,43.0,89,30.06,7.0,ENE,6.9,-,0.00,,Overcast,70,2013-01-06 05:54:00
10:49 PM,46.4,42.8,87,30.10,2.5,ENE,6.9,-,0.00,Rain,Light Rain,60,2013-01-06 06:49:00
10:54 PM,46.0,43.0,89,30.06,5.0,NE,8.1,-,0.00,,Overcast,40,2013-01-06 06:54:00